sensor_id;sensor_type;location;lat;lon;timestamp;temperature;humidity
1626;DHT22;806;48.770;9.156;2023-04-01T00:00:02;9.30;99.90
1626;DHT22;806;48.770;9.156;2023-04-01T00:02:29;9.20;99.90
1626;DHT22;806;48.770;9.156;2023-04-01T00:04:57;9.30;99.90
1626;DHT22;806;48.770;9.156;2023-04-01T00:07:24;9.40;99.90
1626;DHT22;806;48.770;9.156;2023-04-01T00:09:51;9.30;99.90
1626;DHT22;806;48.770;9.156;2023-04-01T00:12:18;9.30;99.90
1626;DHT22;806;48.770;9.156;2023-04-01T00:14:45;9.30;99.90
1626;DHT22;806;48.770;9.156;2023-04-01T00:17:14;9.20;99.90
1626;DHT22;806;48.770;9.156;2023-04-01T00:19:41;9.30;99.90
1626;DHT22;806;48.770;9.156;2023-04-01T00:22:08;9.30;99.90
1626;DHT22;806;48.770;9.156;2023-04-01T00:24:37;9.30;99.90
1626;DHT22;806;48.770;9.156;2023-04-01T00:27:05;9.30;99.90
1626;DHT22;806;48.770;9.156;2023-04-01T00:29:33;9.30;99.90
1626;DHT22;806;48.770;9.156;2023-04-01T00:32:00;9.30;99.90
1626;DHT22;806;48.770;9.156;2023-04-01T00:34:29;9.30;99.90
1626;DHT22;806;48.770;9.156;2023-04-01T00:36:56;9.30;99.90
1626;DHT22;806;48.770;9.156;2023-04-01T00:39:23;9.30;99.90
1626;DHT22;806;48.770;9.156;2023-04-01T00:41:50;9.30;99.90
1626;DHT22;806;48.770;9.156;2023-04-01T00:44:19;9.40;99.90
1626;DHT22;806;48.770;9.156;2023-04-01T00:46:47;9.40;99.90
1626;DHT22;806;48.770;9.156;2023-04-01T00:49:16;9.40;99.90
1626;DHT22;806;48.770;9.156;2023-04-01T00:51:48;9.40;99.90
1626;DHT22;806;48.770;9.156;2023-04-01T00:54:18;9.40;99.90
1626;DHT22;806;48.770;9.156;2023-04-01T00:56:49;9.30;99.90
1626;DHT22;806;48.770;9.156;2023-04-01T00:59:23;9.30;99.90
1626;DHT22;806;48.770;9.156;2023-04-01T01:01:51;9.30;99.90
1626;DHT22;806;48.770;9.156;2023-04-01T01:04:26;9.30;99.90
1626;DHT22;806;48.770;9.156;2023-04-01T01:07:05;9.40;99.90
1626;DHT22;806;48.770;9.156;2023-04-01T01:09:41;9.40;99.90
1626;DHT22;806;48.770;9.156;2023-04-01T01:12:13;9.40;99.90
1626;DHT22;806;48.770;9.156;2023-04-01T01:14:53;9.40;99.90
1626;DHT22;806;48.770;9.156;2023-04-01T01:17:29;9.40;99.90
1626;DHT22;806;48.770;9.156;2023-04-01T01:20:29;9.40;99.90
1626;DHT22;806;48.770;9.156;2023-04-01T01:23:28;9.40;99.90
1626;DHT22;806;48.770;9.156;2023-04-01T01:26:09;9.30;99.90
1626;DHT22;806;48.770;9.156;2023-04-01T01:28:50;9.30;99.90
1626;DHT22;806;48.770;9.156;2023-04-01T01:31:32;9.30;99.90
1626;DHT22;806;48.770;9.156;2023-04-01T01:34:13;9.20;99.90
1626;DHT22;806;48.770;9.156;2023-04-01T01:36:44;9.20;99.90
1626;DHT22;806;48.770;9.156;2023-04-01T01:39:13;9.20;99.90
1626;DHT22;806;48.770;9.156;2023-04-01T01:41:42;9.30;99.90
1626;DHT22;806;48.770;9.156;2023-04-01T01:44:14;9.30;99.90
1626;DHT22;806;48.770;9.156;2023-04-01T01:46:44;9.20;99.90
1626;DHT22;806;48.770;9.156;2023-04-01T01:49:13;9.20;99.90
1626;DHT22;806;48.770;9.156;2023-04-01T01:51:41;9.20;99.90
1626;DHT22;806;48.770;9.156;2023-04-01T01:54:13;9.10;99.90
1626;DHT22;806;48.770;9.156;2023-04-01T01:56:41;9.10;99.90
1626;DHT22;806;48.770;9.156;2023-04-01T01:59:11;9.20;99.90
1626;DHT22;806;48.770;9.156;2023-04-01T02:01:43;9.20;99.90
1626;DHT22;806;48.770;9.156;2023-04-01T02:04:13;9.10;99.90
1626;DHT22;806;48.770;9.156;2023-04-01T02:06:44;9.10;99.90
1626;DHT22;806;48.770;9.156;2023-04-01T02:09:14;9.10;99.90
1626;DHT22;806;48.770;9.156;2023-04-01T02:11:45;9.00;99.90
1626;DHT22;806;48.770;9.156;2023-04-01T02:14:15;9.00;99.90
1626;DHT22;806;48.770;9.156;2023-04-01T02:16:47;9.00;99.90
1626;DHT22;806;48.770;9.156;2023-04-01T02:19:17;9.00;99.90
1626;DHT22;806;48.770;9.156;2023-04-01T02:21:50;9.10;99.90
1626;DHT22;806;48.770;9.156;2023-04-01T02:24:20;9.10;99.90
1626;DHT22;806;48.770;9.156;2023-04-01T02:26:49;9.10;99.90
1626;DHT22;806;48.770;9.156;2023-04-01T02:29:18;9.00;99.90
1626;DHT22;806;48.770;9.156;2023-04-01T02:31:46;9.00;99.90
1626;DHT22;806;48.770;9.156;2023-04-01T02:34:14;9.00;99.90
1626;DHT22;806;48.770;9.156;2023-04-01T02:36:41;9.00;99.90
1626;DHT22;806;48.770;9.156;2023-04-01T02:39:09;9.10;99.90
1626;DHT22;806;48.770;9.156;2023-04-01T02:41:41;9.10;99.90
1626;DHT22;806;48.770;9.156;2023-04-01T02:44:09;9.20;99.90
1626;DHT22;806;48.770;9.156;2023-04-01T02:46:36;9.20;99.90
1626;DHT22;806;48.770;9.156;2023-04-01T02:49:04;9.10;99.90
1626;DHT22;806;48.770;9.156;2023-04-01T02:51:31;9.10;99.90
1626;DHT22;806;48.770;9.156;2023-04-01T02:53:58;9.10;99.90
1626;DHT22;806;48.770;9.156;2023-04-01T02:56:25;9.10;99.90
1626;DHT22;806;48.770;9.156;2023-04-01T02:58:54;9.00;99.90
1626;DHT22;806;48.770;9.156;2023-04-01T03:01:21;9.00;99.90
1626;DHT22;806;48.770;9.156;2023-04-01T03:03:49;9.20;99.90
1626;DHT22;806;48.770;9.156;2023-04-01T03:06:17;9.00;99.90
1626;DHT22;806;48.770;9.156;2023-04-01T03:08:44;9.00;99.90
1626;DHT22;806;48.770;9.156;2023-04-01T03:11:11;8.90;99.90
1626;DHT22;806;48.770;9.156;2023-04-01T03:13:38;8.90;99.90
1626;DHT22;806;48.770;9.156;2023-04-01T03:16:07;9.00;99.90
1626;DHT22;806;48.770;9.156;2023-04-01T03:18:34;9.00;99.90
1626;DHT22;806;48.770;9.156;2023-04-01T03:21:13;9.00;99.90
1626;DHT22;806;48.770;9.156;2023-04-01T03:23:41;9.00;99.90
1626;DHT22;806;48.770;9.156;2023-04-01T03:26:08;9.00;99.90
1626;DHT22;806;48.770;9.156;2023-04-01T03:28:35;9.00;99.90
1626;DHT22;806;48.770;9.156;2023-04-01T03:31:02;8.90;99.90
1626;DHT22;806;48.770;9.156;2023-04-01T03:33:32;8.90;99.90
1626;DHT22;806;48.770;9.156;2023-04-01T03:35:59;8.80;99.90
1626;DHT22;806;48.770;9.156;2023-04-01T03:38:26;8.90;99.90
1626;DHT22;806;48.770;9.156;2023-04-01T03:40:53;8.80;99.90
1626;DHT22;806;48.770;9.156;2023-04-01T03:43:20;8.80;99.90
1626;DHT22;806;48.770;9.156;2023-04-01T03:45:50;8.70;99.90
1626;DHT22;806;48.770;9.156;2023-04-01T03:48:17;8.70;99.90
1626;DHT22;806;48.770;9.156;2023-04-01T03:50:46;8.70;99.90
1626;DHT22;806;48.770;9.156;2023-04-01T03:53:14;8.90;99.90
1626;DHT22;806;48.770;9.156;2023-04-01T03:55:41;9.00;99.90
1626;DHT22;806;48.770;9.156;2023-04-01T03:58:08;9.00;99.90
1626;DHT22;806;48.770;9.156;2023-04-01T04:00:36;9.00;99.90
1626;DHT22;806;48.770;9.156;2023-04-01T04:03:03;8.90;99.90
1626;DHT22;806;48.770;9.156;2023-04-01T04:05:30;8.80;99.90
1626;DHT22;806;48.770;9.156;2023-04-01T04:07:59;8.80;99.90
1626;DHT22;806;48.770;9.156;2023-04-01T04:10:26;8.70;99.90
1626;DHT22;806;48.770;9.156;2023-04-01T04:12:55;8.80;99.90
1626;DHT22;806;48.770;9.156;2023-04-01T04:15:22;8.80;99.90
1626;DHT22;806;48.770;9.156;2023-04-01T04:17:49;8.70;99.90
1626;DHT22;806;48.770;9.156;2023-04-01T04:20:17;8.70;99.90
1626;DHT22;806;48.770;9.156;2023-04-01T04:22:44;8.60;99.90
1626;DHT22;806;48.770;9.156;2023-04-01T04:25:12;8.60;99.90
1626;DHT22;806;48.770;9.156;2023-04-01T04:27:40;8.60;99.90
1626;DHT22;806;48.770;9.156;2023-04-01T04:30:08;8.60;99.90
1626;DHT22;806;48.770;9.156;2023-04-01T04:32:35;8.50;99.90
1626;DHT22;806;48.770;9.156;2023-04-01T04:35:03;8.50;99.90
1626;DHT22;806;48.770;9.156;2023-04-01T04:37:32;8.50;99.90
1626;DHT22;806;48.770;9.156;2023-04-01T04:39:59;8.50;99.90
1626;DHT22;806;48.770;9.156;2023-04-01T04:42:27;8.50;99.90
1626;DHT22;806;48.770;9.156;2023-04-01T04:44:54;8.30;99.90
1626;DHT22;806;48.770;9.156;2023-04-01T04:47:21;8.30;99.90
1626;DHT22;806;48.770;9.156;2023-04-01T04:49:48;8.30;99.90
1626;DHT22;806;48.770;9.156;2023-04-01T04:52:15;8.20;99.90
1626;DHT22;806;48.770;9.156;2023-04-01T04:54:42;8.20;99.90
1626;DHT22;806;48.770;9.156;2023-04-01T04:57:10;8.40;99.90
1626;DHT22;806;48.770;9.156;2023-04-01T04:59:38;8.50;99.90
1626;DHT22;806;48.770;9.156;2023-04-01T05:02:05;8.40;99.90
1626;DHT22;806;48.770;9.156;2023-04-01T05:04:35;8.30;99.90
1626;DHT22;806;48.770;9.156;2023-04-01T05:07:02;8.30;99.90
1626;DHT22;806;48.770;9.156;2023-04-01T05:09:29;8.20;99.90
1626;DHT22;806;48.770;9.156;2023-04-01T05:11:56;8.30;99.90
1626;DHT22;806;48.770;9.156;2023-04-01T05:14:23;8.20;99.90
1626;DHT22;806;48.770;9.156;2023-04-01T05:16:52;8.30;99.90
1626;DHT22;806;48.770;9.156;2023-04-01T05:19:19;8.20;99.90
1626;DHT22;806;48.770;9.156;2023-04-01T05:21:47;8.20;99.90
1626;DHT22;806;48.770;9.156;2023-04-01T05:24:14;8.20;99.90
1626;DHT22;806;48.770;9.156;2023-04-01T05:26:41;8.30;99.90
1626;DHT22;806;48.770;9.156;2023-04-01T05:29:08;8.40;99.90
1626;DHT22;806;48.770;9.156;2023-04-01T05:31:36;8.40;99.90
1626;DHT22;806;48.770;9.156;2023-04-01T05:34:05;8.40;99.90
1626;DHT22;806;48.770;9.156;2023-04-01T05:36:32;8.40;99.90
1626;DHT22;806;48.770;9.156;2023-04-01T05:38:59;8.50;99.90
1626;DHT22;806;48.770;9.156;2023-04-01T05:41:26;8.50;99.90
1626;DHT22;806;48.770;9.156;2023-04-01T05:43:54;8.70;99.90
1626;DHT22;806;48.770;9.156;2023-04-01T05:46:21;8.80;99.90
1626;DHT22;806;48.770;9.156;2023-04-01T05:48:48;8.80;99.90
1626;DHT22;806;48.770;9.156;2023-04-01T05:51:17;8.90;99.90
1626;DHT22;806;48.770;9.156;2023-04-01T05:53:44;8.90;99.90
1626;DHT22;806;48.770;9.156;2023-04-01T05:56:11;9.00;99.90
1626;DHT22;806;48.770;9.156;2023-04-01T05:58:38;9.10;99.90
1626;DHT22;806;48.770;9.156;2023-04-01T06:01:07;9.20;99.90
1626;DHT22;806;48.770;9.156;2023-04-01T06:03:35;9.40;99.90
1626;DHT22;806;48.770;9.156;2023-04-01T06:06:03;9.60;99.90
1626;DHT22;806;48.770;9.156;2023-04-01T06:08:31;9.60;99.90
1626;DHT22;806;48.770;9.156;2023-04-01T06:11:08;9.60;99.90
1626;DHT22;806;48.770;9.156;2023-04-01T06:13:54;9.60;99.90
1626;DHT22;806;48.770;9.156;2023-04-01T06:16:35;9.70;99.90
1626;DHT22;806;48.770;9.156;2023-04-01T06:19:17;9.80;99.90
1626;DHT22;806;48.770;9.156;2023-04-01T06:25:26;9.80;99.90
1626;DHT22;806;48.770;9.156;2023-04-01T06:30:45;9.80;99.90
1626;DHT22;806;48.770;9.156;2023-04-01T06:33:24;9.80;99.90
1626;DHT22;806;48.770;9.156;2023-04-01T06:36:25;9.90;99.90
1626;DHT22;806;48.770;9.156;2023-04-01T06:39:06;9.90;99.90
1626;DHT22;806;48.770;9.156;2023-04-01T06:42:12;9.80;99.90
1626;DHT22;806;48.770;9.156;2023-04-01T06:44:47;9.80;99.90
1626;DHT22;806;48.770;9.156;2023-04-01T06:47:27;9.80;99.90
1626;DHT22;806;48.770;9.156;2023-04-01T06:50:01;9.80;99.90
1626;DHT22;806;48.770;9.156;2023-04-01T06:52:41;10.00;99.90
1626;DHT22;806;48.770;9.156;2023-04-01T06:55:26;10.00;99.90
1626;DHT22;806;48.770;9.156;2023-04-01T06:57:57;10.00;99.90
1626;DHT22;806;48.770;9.156;2023-04-01T07:00:28;10.00;99.90
1626;DHT22;806;48.770;9.156;2023-04-01T07:03:04;10.00;99.90
1626;DHT22;806;48.770;9.156;2023-04-01T07:05:33;10.00;99.90
1626;DHT22;806;48.770;9.156;2023-04-01T07:08:03;10.10;99.90
1626;DHT22;806;48.770;9.156;2023-04-01T07:10:35;10.10;99.90
1626;DHT22;806;48.770;9.156;2023-04-01T07:13:14;10.00;99.90
1626;DHT22;806;48.770;9.156;2023-04-01T07:15:44;10.30;99.90
1626;DHT22;806;48.770;9.156;2023-04-01T07:18:20;10.40;99.90
1626;DHT22;806;48.770;9.156;2023-04-01T07:20:49;10.60;99.90
1626;DHT22;806;48.770;9.156;2023-04-01T07:23:22;10.60;99.90
1626;DHT22;806;48.770;9.156;2023-04-01T07:25:53;10.40;99.90
1626;DHT22;806;48.770;9.156;2023-04-01T07:28:24;10.30;99.90
1626;DHT22;806;48.770;9.156;2023-04-01T07:31:00;10.40;99.90
1626;DHT22;806;48.770;9.156;2023-04-01T07:33:36;10.50;99.90
1626;DHT22;806;48.770;9.156;2023-04-01T07:36:12;10.40;99.90
1626;DHT22;806;48.770;9.156;2023-04-01T07:38:51;10.40;99.90
1626;DHT22;806;48.770;9.156;2023-04-01T07:41:28;10.30;99.90
1626;DHT22;806;48.770;9.156;2023-04-01T07:44:08;10.50;99.90
1626;DHT22;806;48.770;9.156;2023-04-01T07:46:55;10.30;99.90
1626;DHT22;806;48.770;9.156;2023-04-01T07:49:30;10.30;99.90
1626;DHT22;806;48.770;9.156;2023-04-01T07:52:04;10.30;99.90
1626;DHT22;806;48.770;9.156;2023-04-01T07:54:38;10.40;99.90
1626;DHT22;806;48.770;9.156;2023-04-01T07:57:11;10.40;99.90
1626;DHT22;806;48.770;9.156;2023-04-01T07:59:48;10.30;99.90
1626;DHT22;806;48.770;9.156;2023-04-01T08:02:28;10.40;99.90
1626;DHT22;806;48.770;9.156;2023-04-01T08:05:04;10.40;99.90
1626;DHT22;806;48.770;9.156;2023-04-01T08:07:45;10.60;99.90
1626;DHT22;806;48.770;9.156;2023-04-01T08:10:19;10.80;99.90
1626;DHT22;806;48.770;9.156;2023-04-01T08:12:56;10.80;99.90
1626;DHT22;806;48.770;9.156;2023-04-01T08:15:29;10.80;99.90
1626;DHT22;806;48.770;9.156;2023-04-01T08:18:07;10.80;99.90
1626;DHT22;806;48.770;9.156;2023-04-01T08:20:41;10.80;99.90
1626;DHT22;806;48.770;9.156;2023-04-01T08:23:14;10.90;99.90
1626;DHT22;806;48.770;9.156;2023-04-01T08:25:47;10.80;99.90
1626;DHT22;806;48.770;9.156;2023-04-01T08:28:19;10.90;99.90
1626;DHT22;806;48.770;9.156;2023-04-01T08:30:52;10.90;99.90
1626;DHT22;806;48.770;9.156;2023-04-01T08:33:24;10.90;99.90
1626;DHT22;806;48.770;9.156;2023-04-01T08:35:54;10.70;99.90
1626;DHT22;806;48.770;9.156;2023-04-01T08:38:29;10.70;99.90
1626;DHT22;806;48.770;9.156;2023-04-01T08:44:20;10.80;99.90
1626;DHT22;806;48.770;9.156;2023-04-01T08:47:20;10.60;99.90
1626;DHT22;806;48.770;9.156;2023-04-01T08:50:18;10.60;99.90
1626;DHT22;806;48.770;9.156;2023-04-01T08:52:58;10.50;99.90
1626;DHT22;806;48.770;9.156;2023-04-01T08:55:47;10.30;99.90
1626;DHT22;806;48.770;9.156;2023-04-01T09:01:21;10.10;99.90
1626;DHT22;806;48.770;9.156;2023-04-01T09:04:13;10.10;99.90
1626;DHT22;806;48.770;9.156;2023-04-01T09:06:50;10.00;99.90
1626;DHT22;806;48.770;9.156;2023-04-01T09:12:37;10.10;99.90
1626;DHT22;806;48.770;9.156;2023-04-01T09:15:30;10.30;99.90
1626;DHT22;806;48.770;9.156;2023-04-01T09:21:17;10.50;99.90
1626;DHT22;806;48.770;9.156;2023-04-01T09:24:11;10.70;99.90
1626;DHT22;806;48.770;9.156;2023-04-01T09:26:53;10.70;99.90
1626;DHT22;806;48.770;9.156;2023-04-01T09:35:21;11.10;99.90
1626;DHT22;806;48.770;9.156;2023-04-01T09:37:58;11.10;99.90
1626;DHT22;806;48.770;9.156;2023-04-01T09:40:37;11.10;99.90
1626;DHT22;806;48.770;9.156;2023-04-01T09:43:27;11.10;99.90
1626;DHT22;806;48.770;9.156;2023-04-01T09:46:11;11.00;99.90
1626;DHT22;806;48.770;9.156;2023-04-01T09:52:08;10.90;99.90
1626;DHT22;806;48.770;9.156;2023-04-01T09:54:51;11.10;99.90
1626;DHT22;806;48.770;9.156;2023-04-01T09:57:53;11.10;99.90
1626;DHT22;806;48.770;9.156;2023-04-01T10:00:55;11.20;99.90
1626;DHT22;806;48.770;9.156;2023-04-01T10:04:03;11.00;99.90
1626;DHT22;806;48.770;9.156;2023-04-01T10:06:57;11.00;99.90
1626;DHT22;806;48.770;9.156;2023-04-01T10:13:18;11.00;99.90
1626;DHT22;806;48.770;9.156;2023-04-01T10:16:19;11.00;99.90
1626;DHT22;806;48.770;9.156;2023-04-01T10:21:57;11.20;99.90
1626;DHT22;806;48.770;9.156;2023-04-01T10:24:46;11.30;99.90
1626;DHT22;806;48.770;9.156;2023-04-01T10:27:34;11.40;99.90
1626;DHT22;806;48.770;9.156;2023-04-01T10:30:36;11.50;99.90
1626;DHT22;806;48.770;9.156;2023-04-01T10:33:33;11.70;99.90
1626;DHT22;806;48.770;9.156;2023-04-01T10:39:33;11.90;99.90
1626;DHT22;806;48.770;9.156;2023-04-01T10:42:19;12.00;99.90
1626;DHT22;806;48.770;9.156;2023-04-01T10:56:45;11.90;99.90
1626;DHT22;806;48.770;9.156;2023-04-01T10:59:53;11.70;99.90
1626;DHT22;806;48.770;9.156;2023-04-01T11:03:02;11.50;99.90
1626;DHT22;806;48.770;9.156;2023-04-01T11:09:34;11.70;99.90
1626;DHT22;806;48.770;9.156;2023-04-01T11:15:54;11.90;99.90
1626;DHT22;806;48.770;9.156;2023-04-01T11:21:57;12.10;99.90
1626;DHT22;806;48.770;9.156;2023-04-01T11:27:46;12.30;99.90
1626;DHT22;806;48.770;9.156;2023-04-01T11:33:04;12.90;99.90
1626;DHT22;806;48.770;9.156;2023-04-01T11:35:47;13.10;99.90
1626;DHT22;806;48.770;9.156;2023-04-01T11:38:26;13.20;99.90
1626;DHT22;806;48.770;9.156;2023-04-01T11:41:02;13.20;99.90
1626;DHT22;806;48.770;9.156;2023-04-01T11:43:38;13.00;99.90
1626;DHT22;806;48.770;9.156;2023-04-01T11:46:10;13.00;99.90
1626;DHT22;806;48.770;9.156;2023-04-01T11:48:49;12.90;99.90
1626;DHT22;806;48.770;9.156;2023-04-01T11:51:40;12.90;99.90
1626;DHT22;806;48.770;9.156;2023-04-01T11:54:23;12.90;99.90
1626;DHT22;806;48.770;9.156;2023-04-01T11:57:16;12.90;99.90
1626;DHT22;806;48.770;9.156;2023-04-01T12:00:10;12.80;99.90
1626;DHT22;806;48.770;9.156;2023-04-01T12:02:48;12.60;99.90
1626;DHT22;806;48.770;9.156;2023-04-01T12:05:37;12.20;99.90
1626;DHT22;806;48.770;9.156;2023-04-01T12:08:22;12.30;99.90
1626;DHT22;806;48.770;9.156;2023-04-01T12:10:56;12.50;99.90
1626;DHT22;806;48.770;9.156;2023-04-01T12:13:37;12.40;99.90
1626;DHT22;806;48.770;9.156;2023-04-01T12:19:14;12.40;99.90
1626;DHT22;806;48.770;9.156;2023-04-01T12:21:55;12.40;99.90
1626;DHT22;806;48.770;9.156;2023-04-01T12:24:50;12.40;99.90
1626;DHT22;806;48.770;9.156;2023-04-01T12:27:38;12.20;99.90
1626;DHT22;806;48.770;9.156;2023-04-01T12:30:26;12.20;99.90
1626;DHT22;806;48.770;9.156;2023-04-01T12:33:04;12.20;99.90
1626;DHT22;806;48.770;9.156;2023-04-01T12:35:43;12.30;99.90
1626;DHT22;806;48.770;9.156;2023-04-01T12:38:23;12.40;99.90
1626;DHT22;806;48.770;9.156;2023-04-01T12:41:07;12.60;99.90
1626;DHT22;806;48.770;9.156;2023-04-01T12:43:54;12.90;99.90
1626;DHT22;806;48.770;9.156;2023-04-01T12:46:29;12.90;99.90
1626;DHT22;806;48.770;9.156;2023-04-01T12:52:10;13.40;99.90
1626;DHT22;806;48.770;9.156;2023-04-01T13:01:08;13.40;99.90
1626;DHT22;806;48.770;9.156;2023-04-01T13:03:49;13.30;99.90
1626;DHT22;806;48.770;9.156;2023-04-01T13:06:32;13.10;99.90
1626;DHT22;806;48.770;9.156;2023-04-01T13:09:11;13.00;99.90
1626;DHT22;806;48.770;9.156;2023-04-01T13:11:59;12.70;99.90
1626;DHT22;806;48.770;9.156;2023-04-01T13:14:52;12.80;99.90
1626;DHT22;806;48.770;9.156;2023-04-01T13:17:28;12.90;99.90
1626;DHT22;806;48.770;9.156;2023-04-01T13:20:02;13.10;99.90
1626;DHT22;806;48.770;9.156;2023-04-01T13:22:39;13.00;99.90
1626;DHT22;806;48.770;9.156;2023-04-01T13:25:19;12.70;99.90
1626;DHT22;806;48.770;9.156;2023-04-01T13:27:50;12.80;99.90
1626;DHT22;806;48.770;9.156;2023-04-01T13:30:25;12.80;99.90
1626;DHT22;806;48.770;9.156;2023-04-01T13:33:00;12.70;99.90
1626;DHT22;806;48.770;9.156;2023-04-01T13:35:41;12.70;99.90
1626;DHT22;806;48.770;9.156;2023-04-01T13:41:32;12.70;99.90
1626;DHT22;806;48.770;9.156;2023-04-01T13:44:09;12.60;99.90
1626;DHT22;806;48.770;9.156;2023-04-01T13:47:03;12.80;99.90
1626;DHT22;806;48.770;9.156;2023-04-01T13:50:04;12.90;99.90
1626;DHT22;806;48.770;9.156;2023-04-01T13:53:02;12.90;99.90
1626;DHT22;806;48.770;9.156;2023-04-01T13:55:39;13.00;99.90
1626;DHT22;806;48.770;9.156;2023-04-01T13:58:29;12.90;99.90
1626;DHT22;806;48.770;9.156;2023-04-01T14:01:08;12.90;99.90
1626;DHT22;806;48.770;9.156;2023-04-01T14:03:53;13.00;99.90
1626;DHT22;806;48.770;9.156;2023-04-01T14:06:37;13.00;99.90
1626;DHT22;806;48.770;9.156;2023-04-01T14:09:18;12.80;99.90
1626;DHT22;806;48.770;9.156;2023-04-01T14:11:53;12.70;99.90
1626;DHT22;806;48.770;9.156;2023-04-01T14:14:32;12.90;99.90
1626;DHT22;806;48.770;9.156;2023-04-01T14:17:14;12.60;99.90
1626;DHT22;806;48.770;9.156;2023-04-01T14:22:58;12.60;99.90
1626;DHT22;806;48.770;9.156;2023-04-01T14:25:54;12.60;99.90
1626;DHT22;806;48.770;9.156;2023-04-01T14:28:30;12.70;99.90
1626;DHT22;806;48.770;9.156;2023-04-01T14:31:20;12.70;99.90
1626;DHT22;806;48.770;9.156;2023-04-01T14:33:59;12.60;99.90
1626;DHT22;806;48.770;9.156;2023-04-01T14:36:37;12.50;99.90
1626;DHT22;806;48.770;9.156;2023-04-01T14:39:20;12.40;99.90
1626;DHT22;806;48.770;9.156;2023-04-01T14:41:53;12.40;99.90
1626;DHT22;806;48.770;9.156;2023-04-01T14:44:48;12.40;99.90
1626;DHT22;806;48.770;9.156;2023-04-01T14:47:34;12.30;99.90
1626;DHT22;806;48.770;9.156;2023-04-01T14:50:12;12.30;99.90
1626;DHT22;806;48.770;9.156;2023-04-01T14:52:42;12.20;99.90
1626;DHT22;806;48.770;9.156;2023-04-01T14:55:27;12.20;99.90
1626;DHT22;806;48.770;9.156;2023-04-01T14:58:04;12.30;99.90
1626;DHT22;806;48.770;9.156;2023-04-01T15:00:47;12.20;99.90
1626;DHT22;806;48.770;9.156;2023-04-01T15:03:19;12.30;99.90
1626;DHT22;806;48.770;9.156;2023-04-01T15:05:52;12.30;99.90
1626;DHT22;806;48.770;9.156;2023-04-01T15:08:24;12.40;99.90
1626;DHT22;806;48.770;9.156;2023-04-01T15:14:25;12.60;99.90
1626;DHT22;806;48.770;9.156;2023-04-01T15:17:05;12.60;99.90
1626;DHT22;806;48.770;9.156;2023-04-01T15:19:45;12.60;99.90
1626;DHT22;806;48.770;9.156;2023-04-01T15:22:43;12.50;99.90
1626;DHT22;806;48.770;9.156;2023-04-01T15:25:30;12.50;99.90
1626;DHT22;806;48.770;9.156;2023-04-01T15:28:06;12.20;99.90
1626;DHT22;806;48.770;9.156;2023-04-01T15:30:47;12.30;99.90
1626;DHT22;806;48.770;9.156;2023-04-01T15:33:30;12.40;99.90
1626;DHT22;806;48.770;9.156;2023-04-01T15:36:05;12.20;99.90
1626;DHT22;806;48.770;9.156;2023-04-01T15:38:41;12.30;99.90
1626;DHT22;806;48.770;9.156;2023-04-01T15:41:14;12.30;99.90
1626;DHT22;806;48.770;9.156;2023-04-01T15:43:45;12.30;99.90
1626;DHT22;806;48.770;9.156;2023-04-01T15:46:36;12.30;99.90
1626;DHT22;806;48.770;9.156;2023-04-01T15:49:15;12.30;99.90
1626;DHT22;806;48.770;9.156;2023-04-01T15:55:01;12.40;99.90
1626;DHT22;806;48.770;9.156;2023-04-01T15:57:43;12.50;99.90
1626;DHT22;806;48.770;9.156;2023-04-01T16:00:24;12.40;99.90
1626;DHT22;806;48.770;9.156;2023-04-01T16:05:54;12.20;99.90
1626;DHT22;806;48.770;9.156;2023-04-01T16:08:50;12.40;99.90
1626;DHT22;806;48.770;9.156;2023-04-01T16:11:25;12.30;99.90
1626;DHT22;806;48.770;9.156;2023-04-01T16:14:06;12.30;99.90
1626;DHT22;806;48.770;9.156;2023-04-01T16:16:53;12.20;99.90
1626;DHT22;806;48.770;9.156;2023-04-01T16:19:37;12.10;99.90
1626;DHT22;806;48.770;9.156;2023-04-01T16:22:08;12.10;99.90
1626;DHT22;806;48.770;9.156;2023-04-01T16:24:41;12.00;99.90
1626;DHT22;806;48.770;9.156;2023-04-01T16:27:14;12.10;99.90
1626;DHT22;806;48.770;9.156;2023-04-01T16:29:47;12.00;99.90
1626;DHT22;806;48.770;9.156;2023-04-01T16:32:25;12.00;99.90
1626;DHT22;806;48.770;9.156;2023-04-01T16:35:10;12.00;99.90
1626;DHT22;806;48.770;9.156;2023-04-01T16:37:46;12.10;99.90
1626;DHT22;806;48.770;9.156;2023-04-01T16:40:24;12.10;99.90
1626;DHT22;806;48.770;9.156;2023-04-01T16:42:54;11.90;99.90
1626;DHT22;806;48.770;9.156;2023-04-01T16:45:33;11.80;99.90
1626;DHT22;806;48.770;9.156;2023-04-01T16:48:11;11.80;99.90
1626;DHT22;806;48.770;9.156;2023-04-01T16:50:53;11.80;99.90
1626;DHT22;806;48.770;9.156;2023-04-01T16:53:30;11.90;99.90
1626;DHT22;806;48.770;9.156;2023-04-01T16:56:07;11.90;99.90
1626;DHT22;806;48.770;9.156;2023-04-01T16:58:40;12.10;99.90
1626;DHT22;806;48.770;9.156;2023-04-01T17:01:13;12.10;99.90
1626;DHT22;806;48.770;9.156;2023-04-01T17:03:46;12.10;99.90
1626;DHT22;806;48.770;9.156;2023-04-01T17:06:30;12.00;99.90
1626;DHT22;806;48.770;9.156;2023-04-01T17:12:06;12.00;99.90
1626;DHT22;806;48.770;9.156;2023-04-01T17:14:42;12.10;99.90
1626;DHT22;806;48.770;9.156;2023-04-01T17:17:29;12.00;99.90
1626;DHT22;806;48.770;9.156;2023-04-01T17:20:20;11.90;99.90
1626;DHT22;806;48.770;9.156;2023-04-01T17:22:57;11.80;99.90
1626;DHT22;806;48.770;9.156;2023-04-01T17:25:46;11.70;99.90
1626;DHT22;806;48.770;9.156;2023-04-01T17:28:25;11.70;99.90
1626;DHT22;806;48.770;9.156;2023-04-01T17:31:02;11.80;99.90
1626;DHT22;806;48.770;9.156;2023-04-01T17:33:44;11.70;99.90
1626;DHT22;806;48.770;9.156;2023-04-01T17:36:25;11.70;99.90
1626;DHT22;806;48.770;9.156;2023-04-01T17:39:05;11.70;99.90
1626;DHT22;806;48.770;9.156;2023-04-01T17:41:46;11.70;99.90
1626;DHT22;806;48.770;9.156;2023-04-01T17:44:22;11.80;99.90
1626;DHT22;806;48.770;9.156;2023-04-01T17:47:16;11.80;99.90
1626;DHT22;806;48.770;9.156;2023-04-01T17:49:55;11.70;99.90
1626;DHT22;806;48.770;9.156;2023-04-01T17:52:29;11.70;99.90
1626;DHT22;806;48.770;9.156;2023-04-01T17:55:14;11.80;99.90
1626;DHT22;806;48.770;9.156;2023-04-01T17:57:46;11.80;99.90
1626;DHT22;806;48.770;9.156;2023-04-01T18:00:26;11.70;99.90
1626;DHT22;806;48.770;9.156;2023-04-01T18:03:06;11.60;99.90
1626;DHT22;806;48.770;9.156;2023-04-01T18:05:51;11.60;99.90
1626;DHT22;806;48.770;9.156;2023-04-01T18:08:35;11.60;99.90
1626;DHT22;806;48.770;9.156;2023-04-01T18:11:11;11.40;99.90
1626;DHT22;806;48.770;9.156;2023-04-01T18:13:53;11.40;99.90
1626;DHT22;806;48.770;9.156;2023-04-01T18:16:41;11.30;99.90
1626;DHT22;806;48.770;9.156;2023-04-01T18:19:23;11.20;99.90
1626;DHT22;806;48.770;9.156;2023-04-01T18:21:54;11.30;99.90
1626;DHT22;806;48.770;9.156;2023-04-01T18:24:27;11.40;99.90
1626;DHT22;806;48.770;9.156;2023-04-01T18:27:02;11.40;99.90
1626;DHT22;806;48.770;9.156;2023-04-01T18:29:39;11.30;99.90
1626;DHT22;806;48.770;9.156;2023-04-01T18:32:22;11.10;99.90
1626;DHT22;806;48.770;9.156;2023-04-01T18:34:57;10.90;99.90
1626;DHT22;806;48.770;9.156;2023-04-01T18:37:31;10.70;99.90
1626;DHT22;806;48.770;9.156;2023-04-01T18:40:11;10.60;99.90
1626;DHT22;806;48.770;9.156;2023-04-01T18:42:45;10.40;99.90
1626;DHT22;806;48.770;9.156;2023-04-01T18:45:22;10.40;99.90
1626;DHT22;806;48.770;9.156;2023-04-01T18:48:00;10.40;99.90
1626;DHT22;806;48.770;9.156;2023-04-01T18:50:35;10.40;99.90
1626;DHT22;806;48.770;9.156;2023-04-01T18:53:12;10.40;99.90
1626;DHT22;806;48.770;9.156;2023-04-01T18:55:47;10.30;99.90
1626;DHT22;806;48.770;9.156;2023-04-01T18:58:28;10.20;99.90
1626;DHT22;806;48.770;9.156;2023-04-01T19:01:17;10.20;99.90